< < Back
Terminal Aerodrome Forecast


Current Version              Previous Versions:   1  2  3  4  5  6  7  8  9  

Terminal Aerodrome Forecast

642
FTUS42 KCHS 311500 AAB
TAFCHS
TAF AMD
KCHS 311531Z 3116/0112 10013G19KT P6SM VCTS SCT030CB SCT050 BKN080
      TEMPO 3116/3120 VRB22G27KT 2SM +TSRA SCT010 BKN019CB
     FM010100 09005KT P6SM SCT025 BKN150
     FM010600 08003KT P6SM VCSH SCT020 BKN040=

Latest METAR

661
SAUS80 KWBC 311900 RRB
MTRCHS
METAR KCHS 311856Z 28009KT 3SM +TSRA BR SCT025 BKN035CB OVC060 24/23
A3004 RMK AO2 SLP173 OCNL LTGIC OHD TS OHD MOV N P0029
T02440228 $


USA.gov is the U.S. government's official web portal to all federal, state and local government web resources and services.